sensor_id;sensor_type;location;lat;lon;timestamp;P1;durP1;ratioP1;P2;durP2;ratioP2
57085;SDS011;42964;42.910;23.792;2024-03-02T00:01:03;44.83;;;24.58;;
57085;SDS011;42964;42.910;23.792;2024-03-02T00:06:02;41.47;;;21.05;;
57085;SDS011;42964;42.910;23.792;2024-03-02T00:11:02;42.40;;;22.92;;
57085;SDS011;42964;42.910;23.792;2024-03-02T00:16:01;47.88;;;25.30;;
57085;SDS011;42964;42.910;23.792;2024-03-02T00:21:03;46.30;;;24.95;;
57085;SDS011;42964;42.910;23.792;2024-03-02T00:26:04;46.45;;;22.67;;
57085;SDS011;42964;42.910;23.792;2024-03-02T00:31:05;39.53;;;21.65;;
57085;SDS011;42964;42.910;23.792;2024-03-02T00:36:06;35.22;;;17.98;;
57085;SDS011;42964;42.910;23.792;2024-03-02T00:41:06;37.97;;;20.95;;
57085;SDS011;42964;42.910;23.792;2024-03-02T00:46:06;39.20;;;19.58;;
57085;SDS011;42964;42.910;23.792;2024-03-02T00:56:04;37.65;;;19.10;;
57085;SDS011;42964;42.910;23.792;2024-03-02T01:01:08;38.53;;;20.48;;
57085;SDS011;42964;42.910;23.792;2024-03-02T01:06:08;39.95;;;18.98;;
57085;SDS011;42964;42.910;23.792;2024-03-02T01:11:07;38.80;;;18.77;;
57085;SDS011;42964;42.910;23.792;2024-03-02T01:16:06;37.95;;;20.33;;
57085;SDS011;42964;42.910;23.792;2024-03-02T01:21:05;44.00;;;20.50;;
57085;SDS011;42964;42.910;23.792;2024-03-02T01:26:04;40.10;;;18.88;;
57085;SDS011;42964;42.910;23.792;2024-03-02T01:31:04;40.92;;;20.30;;
57085;SDS011;42964;42.910;23.792;2024-03-02T01:36:03;41.83;;;21.15;;
57085;SDS011;42964;42.910;23.792;2024-03-02T01:41:02;40.83;;;20.02;;
57085;SDS011;42964;42.910;23.792;2024-03-02T01:46:01;42.53;;;19.98;;
57085;SDS011;42964;42.910;23.792;2024-03-02T01:51:00;39.78;;;20.90;;
57085;SDS011;42964;42.910;23.792;2024-03-02T01:55:59;39.17;;;19.85;;
57085;SDS011;42964;42.910;23.792;2024-03-02T02:01:00;36.65;;;18.27;;
57085;SDS011;42964;42.910;23.792;2024-03-02T02:05:59;36.22;;;18.05;;
57085;SDS011;42964;42.910;23.792;2024-03-02T02:10:58;40.63;;;19.25;;
57085;SDS011;42964;42.910;23.792;2024-03-02T02:16:06;33.45;;;17.05;;
57085;SDS011;42964;42.910;23.792;2024-03-02T02:21:06;34.70;;;18.48;;
57085;SDS011;42964;42.910;23.792;2024-03-02T02:26:05;36.00;;;19.27;;
57085;SDS011;42964;42.910;23.792;2024-03-02T02:31:04;34.58;;;18.00;;
57085;SDS011;42964;42.910;23.792;2024-03-02T02:36:03;34.45;;;16.80;;
57085;SDS011;42964;42.910;23.792;2024-03-02T02:41:03;35.22;;;18.58;;
57085;SDS011;42964;42.910;23.792;2024-03-02T02:46:02;34.10;;;18.33;;
57085;SDS011;42964;42.910;23.792;2024-03-02T02:51:01;31.13;;;16.33;;
57085;SDS011;42964;42.910;23.792;2024-03-02T02:56:00;30.98;;;17.23;;
57085;SDS011;42964;42.910;23.792;2024-03-02T03:01:00;39.88;;;20.25;;
57085;SDS011;42964;42.910;23.792;2024-03-02T03:05:59;39.47;;;19.25;;
57085;SDS011;42964;42.910;23.792;2024-03-02T03:10:58;38.45;;;18.92;;
57085;SDS011;42964;42.910;23.792;2024-03-02T03:15:57;36.25;;;18.77;;
57085;SDS011;42964;42.910;23.792;2024-03-02T03:20:56;31.88;;;16.88;;
57085;SDS011;42964;42.910;23.792;2024-03-02T03:25:55;28.23;;;15.20;;
57085;SDS011;42964;42.910;23.792;2024-03-02T03:30:54;27.90;;;16.10;;
57085;SDS011;42964;42.910;23.792;2024-03-02T03:35:53;33.03;;;17.90;;
57085;SDS011;42964;42.910;23.792;2024-03-02T03:40:52;29.42;;;15.98;;
57085;SDS011;42964;42.910;23.792;2024-03-02T03:45:51;29.25;;;15.90;;
57085;SDS011;42964;42.910;23.792;2024-03-02T03:50:49;28.10;;;14.25;;
57085;SDS011;42964;42.910;23.792;2024-03-02T03:55:48;26.92;;;14.40;;
57085;SDS011;42964;42.910;23.792;2024-03-02T04:00:48;24.88;;;13.48;;
57085;SDS011;42964;42.910;23.792;2024-03-02T04:05:47;32.17;;;17.05;;
57085;SDS011;42964;42.910;23.792;2024-03-02T04:10:45;25.65;;;14.13;;
57085;SDS011;42964;42.910;23.792;2024-03-02T04:15:45;24.83;;;12.63;;
57085;SDS011;42964;42.910;23.792;2024-03-02T04:20:44;25.55;;;12.57;;
57085;SDS011;42964;42.910;23.792;2024-03-02T04:25:43;29.58;;;13.60;;
57085;SDS011;42964;42.910;23.792;2024-03-02T04:30:42;23.70;;;11.95;;
57085;SDS011;42964;42.910;23.792;2024-03-02T04:35:41;27.98;;;14.73;;
57085;SDS011;42964;42.910;23.792;2024-03-02T04:40:39;27.13;;;13.43;;
57085;SDS011;42964;42.910;23.792;2024-03-02T04:45:38;23.40;;;12.45;;
57085;SDS011;42964;42.910;23.792;2024-03-02T04:50:37;25.38;;;12.18;;
57085;SDS011;42964;42.910;23.792;2024-03-02T04:55:36;38.10;;;20.35;;
57085;SDS011;42964;42.910;23.792;2024-03-02T05:00:38;34.88;;;18.63;;
57085;SDS011;42964;42.910;23.792;2024-03-02T05:05:37;30.05;;;15.88;;
57085;SDS011;42964;42.910;23.792;2024-03-02T05:10:37;29.50;;;15.27;;
57085;SDS011;42964;42.910;23.792;2024-03-02T05:15:36;26.15;;;13.55;;
57085;SDS011;42964;42.910;23.792;2024-03-02T05:20:35;32.97;;;16.83;;
57085;SDS011;42964;42.910;23.792;2024-03-02T05:25:34;29.42;;;16.05;;
57085;SDS011;42964;42.910;23.792;2024-03-02T05:30:33;30.13;;;17.52;;
57085;SDS011;42964;42.910;23.792;2024-03-02T05:35:33;29.00;;;16.40;;
57085;SDS011;42964;42.910;23.792;2024-03-02T05:40:31;28.83;;;14.82;;
57085;SDS011;42964;42.910;23.792;2024-03-02T05:45:30;30.83;;;16.30;;
57085;SDS011;42964;42.910;23.792;2024-03-02T05:50:29;28.45;;;14.35;;
57085;SDS011;42964;42.910;23.792;2024-03-02T05:55:28;27.15;;;14.95;;
57085;SDS011;42964;42.910;23.792;2024-03-02T06:00:27;29.65;;;15.90;;
57085;SDS011;42964;42.910;23.792;2024-03-02T06:05:26;29.17;;;14.70;;
57085;SDS011;42964;42.910;23.792;2024-03-02T06:10:25;28.52;;;16.17;;
57085;SDS011;42964;42.910;23.792;2024-03-02T06:15:24;31.65;;;15.27;;
57085;SDS011;42964;42.910;23.792;2024-03-02T06:20:23;31.23;;;15.55;;
57085;SDS011;42964;42.910;23.792;2024-03-02T06:25:22;29.92;;;15.50;;
57085;SDS011;42964;42.910;23.792;2024-03-02T06:30:21;30.80;;;16.52;;
57085;SDS011;42964;42.910;23.792;2024-03-02T06:35:20;24.10;;;13.75;;
57085;SDS011;42964;42.910;23.792;2024-03-02T06:40:19;24.77;;;13.38;;
57085;SDS011;42964;42.910;23.792;2024-03-02T06:45:18;21.50;;;11.13;;
57085;SDS011;42964;42.910;23.792;2024-03-02T06:50:17;23.00;;;11.63;;
57085;SDS011;42964;42.910;23.792;2024-03-02T06:55:16;25.85;;;14.40;;
57085;SDS011;42964;42.910;23.792;2024-03-02T07:00:15;31.17;;;15.82;;
57085;SDS011;42964;42.910;23.792;2024-03-02T07:05:16;25.30;;;14.93;;
57085;SDS011;42964;42.910;23.792;2024-03-02T07:10:15;42.55;;;26.92;;
57085;SDS011;42964;42.910;23.792;2024-03-02T07:15:14;19.52;;;12.00;;
57085;SDS011;42964;42.910;23.792;2024-03-02T07:20:31;19.98;;;11.45;;
57085;SDS011;42964;42.910;23.792;2024-03-02T07:25:30;20.52;;;11.82;;
57085;SDS011;42964;42.910;23.792;2024-03-02T07:30:29;17.13;;;9.68;;
57085;SDS011;42964;42.910;23.792;2024-03-02T07:35:28;16.85;;;10.10;;
57085;SDS011;42964;42.910;23.792;2024-03-02T07:40:30;17.33;;;9.68;;
57085;SDS011;42964;42.910;23.792;2024-03-02T07:45:28;14.85;;;10.45;;
57085;SDS011;42964;42.910;23.792;2024-03-02T07:50:27;11.13;;;6.40;;
57085;SDS011;42964;42.910;23.792;2024-03-02T07:55:26;10.55;;;6.32;;
57085;SDS011;42964;42.910;23.792;2024-03-02T08:00:25;13.57;;;7.30;;
57085;SDS011;42964;42.910;23.792;2024-03-02T08:05:25;14.43;;;8.77;;
57085;SDS011;42964;42.910;23.792;2024-03-02T08:10:25;19.20;;;12.25;;
57085;SDS011;42964;42.910;23.792;2024-03-02T08:15:24;18.42;;;11.73;;
57085;SDS011;42964;42.910;23.792;2024-03-02T08:20:23;24.35;;;15.57;;
57085;SDS011;42964;42.910;23.792;2024-03-02T08:25:22;31.23;;;18.02;;
57085;SDS011;42964;42.910;23.792;2024-03-02T08:30:21;29.35;;;21.33;;
57085;SDS011;42964;42.910;23.792;2024-03-02T08:35:20;19.25;;;7.97;;
57085;SDS011;42964;42.910;23.792;2024-03-02T08:40:21;14.35;;;8.88;;
57085;SDS011;42964;42.910;23.792;2024-03-02T08:45:19;47.20;;;24.80;;
57085;SDS011;42964;42.910;23.792;2024-03-02T08:50:19;10.15;;;5.72;;
57085;SDS011;42964;42.910;23.792;2024-03-02T08:55:18;23.85;;;15.35;;
57085;SDS011;42964;42.910;23.792;2024-03-02T09:00:17;11.57;;;7.20;;
57085;SDS011;42964;42.910;23.792;2024-03-02T09:05:16;7.78;;;4.95;;
57085;SDS011;42964;42.910;23.792;2024-03-02T09:10:15;36.28;;;22.65;;
57085;SDS011;42964;42.910;23.792;2024-03-02T09:15:15;5.35;;;3.60;;
57085;SDS011;42964;42.910;23.792;2024-03-02T09:20:14;7.72;;;5.22;;
57085;SDS011;42964;42.910;23.792;2024-03-02T09:25:13;8.25;;;6.18;;
57085;SDS011;42964;42.910;23.792;2024-03-02T09:30:12;10.20;;;6.18;;
57085;SDS011;42964;42.910;23.792;2024-03-02T09:35:12;9.32;;;6.72;;
57085;SDS011;42964;42.910;23.792;2024-03-02T09:40:11;8.30;;;6.10;;
57085;SDS011;42964;42.910;23.792;2024-03-02T09:45:11;14.93;;;10.25;;
57085;SDS011;42964;42.910;23.792;2024-03-02T09:55:09;12.75;;;8.48;;
57085;SDS011;42964;42.910;23.792;2024-03-02T10:00:10;19.23;;;14.25;;
57085;SDS011;42964;42.910;23.792;2024-03-02T10:05:13;12.32;;;9.30;;
57085;SDS011;42964;42.910;23.792;2024-03-02T10:10:34;13.43;;;8.98;;
57085;SDS011;42964;42.910;23.792;2024-03-02T10:15:35;14.93;;;10.93;;
57085;SDS011;42964;42.910;23.792;2024-03-02T10:20:35;15.55;;;12.95;;
57085;SDS011;42964;42.910;23.792;2024-03-02T10:30:33;19.88;;;16.20;;
57085;SDS011;42964;42.910;23.792;2024-03-02T10:35:33;20.23;;;16.65;;
57085;SDS011;42964;42.910;23.792;2024-03-02T10:40:36;6.20;;;4.90;;
57085;SDS011;42964;42.910;23.792;2024-03-02T10:45:35;6.95;;;4.93;;
57085;SDS011;42964;42.910;23.792;2024-03-02T10:55:33;6.05;;;4.13;;
57085;SDS011;42964;42.910;23.792;2024-03-02T11:00:33;22.30;;;15.55;;
57085;SDS011;42964;42.910;23.792;2024-03-02T11:05:38;21.80;;;14.07;;
57085;SDS011;42964;42.910;23.792;2024-03-02T11:10:49;15.48;;;10.05;;
57085;SDS011;42964;42.910;23.792;2024-03-02T11:15:51;3.28;;;2.58;;
57085;SDS011;42964;42.910;23.792;2024-03-02T11:20:54;2.40;;;2.20;;
57085;SDS011;42964;42.910;23.792;2024-03-02T11:30:52;8.05;;;5.95;;
57085;SDS011;42964;42.910;23.792;2024-03-02T11:40:50;6.68;;;4.60;;
57085;SDS011;42964;42.910;23.792;2024-03-02T11:50:54;5.78;;;3.88;;
57085;SDS011;42964;42.910;23.792;2024-03-02T11:55:58;12.88;;;7.55;;
57085;SDS011;42964;42.910;23.792;2024-03-02T12:00:57;6.78;;;4.93;;
57085;SDS011;42964;42.910;23.792;2024-03-02T12:05:56;8.13;;;5.53;;
57085;SDS011;42964;42.910;23.792;2024-03-02T12:10:58;7.30;;;4.82;;
57085;SDS011;42964;42.910;23.792;2024-03-02T12:16:01;8.82;;;6.68;;
57085;SDS011;42964;42.910;23.792;2024-03-02T12:21:01;5.43;;;3.67;;
57085;SDS011;42964;42.910;23.792;2024-03-02T12:26:01;5.68;;;3.40;;
57085;SDS011;42964;42.910;23.792;2024-03-02T12:31:00;7.70;;;5.63;;
57085;SDS011;42964;42.910;23.792;2024-03-02T12:35:59;10.27;;;6.05;;
57085;SDS011;42964;42.910;23.792;2024-03-02T12:45:58;9.38;;;6.00;;
57085;SDS011;42964;42.910;23.792;2024-03-02T12:50:57;12.88;;;8.50;;
57085;SDS011;42964;42.910;23.792;2024-03-02T13:01:07;6.43;;;4.18;;
57085;SDS011;42964;42.910;23.792;2024-03-02T13:06:09;6.03;;;3.25;;
57085;SDS011;42964;42.910;23.792;2024-03-02T13:11:09;9.52;;;6.32;;
57085;SDS011;42964;42.910;23.792;2024-03-02T13:16:09;4.63;;;3.90;;
57085;SDS011;42964;42.910;23.792;2024-03-02T13:21:08;6.47;;;4.80;;
57085;SDS011;42964;42.910;23.792;2024-03-02T13:26:07;3.88;;;2.47;;
57085;SDS011;42964;42.910;23.792;2024-03-02T13:31:08;5.70;;;3.78;;
57085;SDS011;42964;42.910;23.792;2024-03-02T13:36:08;21.77;;;9.13;;
57085;SDS011;42964;42.910;23.792;2024-03-02T13:41:07;6.53;;;3.95;;
57085;SDS011;42964;42.910;23.792;2024-03-02T13:46:06;5.20;;;3.75;;
57085;SDS011;42964;42.910;23.792;2024-03-02T13:56:04;33.40;;;17.75;;
57085;SDS011;42964;42.910;23.792;2024-03-02T14:01:04;7.18;;;5.05;;
57085;SDS011;42964;42.910;23.792;2024-03-02T14:06:04;7.38;;;4.55;;
57085;SDS011;42964;42.910;23.792;2024-03-02T14:11:03;4.43;;;2.85;;
57085;SDS011;42964;42.910;23.792;2024-03-02T14:16:02;5.93;;;4.32;;
57085;SDS011;42964;42.910;23.792;2024-03-02T14:21:01;6.65;;;4.80;;
57085;SDS011;42964;42.910;23.792;2024-03-02T14:26:00;7.72;;;5.38;;
57085;SDS011;42964;42.910;23.792;2024-03-02T14:30:59;9.45;;;6.22;;
57085;SDS011;42964;42.910;23.792;2024-03-02T14:35:59;9.57;;;6.25;;
57085;SDS011;42964;42.910;23.792;2024-03-02T14:40:58;7.03;;;5.38;;
57085;SDS011;42964;42.910;23.792;2024-03-02T14:45:57;7.93;;;4.90;;
57085;SDS011;42964;42.910;23.792;2024-03-02T14:50:57;2.28;;;2.03;;
57085;SDS011;42964;42.910;23.792;2024-03-02T14:55:56;3.05;;;2.20;;
57085;SDS011;42964;42.910;23.792;2024-03-02T15:00:56;3.00;;;2.65;;
57085;SDS011;42964;42.910;23.792;2024-03-02T15:05:55;6.63;;;4.90;;
57085;SDS011;42964;42.910;23.792;2024-03-02T15:10:55;3.42;;;2.60;;
57085;SDS011;42964;42.910;23.792;2024-03-02T15:15:54;5.05;;;4.00;;
57085;SDS011;42964;42.910;23.792;2024-03-02T15:20:53;7.97;;;5.45;;
57085;SDS011;42964;42.910;23.792;2024-03-02T15:25:53;6.95;;;4.57;;
57085;SDS011;42964;42.910;23.792;2024-03-02T15:30:52;8.90;;;5.90;;
57085;SDS011;42964;42.910;23.792;2024-03-02T15:35:51;2.10;;;1.55;;
57085;SDS011;42964;42.910;23.792;2024-03-02T15:40:50;4.57;;;2.67;;
57085;SDS011;42964;42.910;23.792;2024-03-02T15:45:49;7.05;;;3.97;;
57085;SDS011;42964;42.910;23.792;2024-03-02T15:50:48;7.47;;;4.57;;
57085;SDS011;42964;42.910;23.792;2024-03-02T15:55:48;16.48;;;13.52;;
57085;SDS011;42964;42.910;23.792;2024-03-02T16:05:46;22.45;;;12.93;;
57085;SDS011;42964;42.910;23.792;2024-03-02T16:10:45;20.30;;;12.30;;
57085;SDS011;42964;42.910;23.792;2024-03-02T16:15:44;18.33;;;10.88;;
57085;SDS011;42964;42.910;23.792;2024-03-02T16:20:43;4.97;;;3.30;;
57085;SDS011;42964;42.910;23.792;2024-03-02T16:25:42;5.10;;;3.28;;
57085;SDS011;42964;42.910;23.792;2024-03-02T16:30:41;4.78;;;3.40;;
57085;SDS011;42964;42.910;23.792;2024-03-02T16:35:40;6.35;;;4.47;;
57085;SDS011;42964;42.910;23.792;2024-03-02T16:40:39;14.77;;;10.18;;
57085;SDS011;42964;42.910;23.792;2024-03-02T16:45:39;20.27;;;14.98;;
57085;SDS011;42964;42.910;23.792;2024-03-02T16:50:38;25.88;;;19.35;;
57085;SDS011;42964;42.910;23.792;2024-03-02T16:55:37;23.52;;;19.13;;
57085;SDS011;42964;42.910;23.792;2024-03-02T17:00:36;36.08;;;24.85;;
57085;SDS011;42964;42.910;23.792;2024-03-02T17:05:36;27.65;;;20.15;;
57085;SDS011;42964;42.910;23.792;2024-03-02T17:10:35;63.53;;;35.95;;
57085;SDS011;42964;42.910;23.792;2024-03-02T17:15:34;72.75;;;42.70;;
57085;SDS011;42964;42.910;23.792;2024-03-02T17:20:33;76.68;;;41.50;;
57085;SDS011;42964;42.910;23.792;2024-03-02T17:25:32;42.10;;;26.25;;
57085;SDS011;42964;42.910;23.792;2024-03-02T17:30:31;35.50;;;22.27;;
57085;SDS011;42964;42.910;23.792;2024-03-02T17:35:30;26.42;;;18.30;;
57085;SDS011;42964;42.910;23.792;2024-03-02T17:40:30;24.90;;;17.50;;
57085;SDS011;42964;42.910;23.792;2024-03-02T17:45:30;22.42;;;15.85;;
57085;SDS011;42964;42.910;23.792;2024-03-02T17:50:29;24.17;;;17.83;;
57085;SDS011;42964;42.910;23.792;2024-03-02T17:55:28;28.25;;;20.90;;
57085;SDS011;42964;42.910;23.792;2024-03-02T18:05:26;29.08;;;21.83;;
57085;SDS011;42964;42.910;23.792;2024-03-02T18:10:25;28.63;;;22.38;;
57085;SDS011;42964;42.910;23.792;2024-03-02T18:15:27;31.17;;;21.90;;
57085;SDS011;42964;42.910;23.792;2024-03-02T18:20:26;75.20;;;37.38;;
57085;SDS011;42964;42.910;23.792;2024-03-02T18:25:24;66.07;;;35.90;;
57085;SDS011;42964;42.910;23.792;2024-03-02T18:30:23;53.25;;;32.67;;
57085;SDS011;42964;42.910;23.792;2024-03-02T18:35:22;19.95;;;12.85;;
57085;SDS011;42964;42.910;23.792;2024-03-02T18:40:21;22.60;;;12.10;;
57085;SDS011;42964;42.910;23.792;2024-03-02T18:45:20;24.10;;;13.07;;
57085;SDS011;42964;42.910;23.792;2024-03-02T18:50:19;23.42;;;14.27;;
57085;SDS011;42964;42.910;23.792;2024-03-02T18:55:18;18.27;;;10.32;;
57085;SDS011;42964;42.910;23.792;2024-03-02T19:00:17;23.58;;;15.25;;
57085;SDS011;42964;42.910;23.792;2024-03-02T19:05:17;25.38;;;16.63;;
57085;SDS011;42964;42.910;23.792;2024-03-02T19:10:16;29.35;;;17.98;;
57085;SDS011;42964;42.910;23.792;2024-03-02T19:15:15;25.98;;;17.08;;
57085;SDS011;42964;42.910;23.792;2024-03-02T19:20:14;25.52;;;17.95;;
57085;SDS011;42964;42.910;23.792;2024-03-02T19:25:14;36.20;;;23.00;;
57085;SDS011;42964;42.910;23.792;2024-03-02T19:30:13;36.10;;;23.55;;
57085;SDS011;42964;42.910;23.792;2024-03-02T19:35:12;33.38;;;22.27;;
57085;SDS011;42964;42.910;23.792;2024-03-02T19:40:11;42.03;;;28.00;;
57085;SDS011;42964;42.910;23.792;2024-03-02T19:45:10;41.17;;;26.55;;
57085;SDS011;42964;42.910;23.792;2024-03-02T19:50:09;38.83;;;25.88;;
57085;SDS011;42964;42.910;23.792;2024-03-02T19:55:12;31.90;;;20.95;;
57085;SDS011;42964;42.910;23.792;2024-03-02T20:00:12;43.72;;;25.88;;
57085;SDS011;42964;42.910;23.792;2024-03-02T20:05:15;30.40;;;19.92;;
57085;SDS011;42964;42.910;23.792;2024-03-02T20:10:14;33.85;;;21.42;;
57085;SDS011;42964;42.910;23.792;2024-03-02T20:20:12;36.40;;;24.15;;
57085;SDS011;42964;42.910;23.792;2024-03-02T20:25:12;30.70;;;20.02;;
57085;SDS011;42964;42.910;23.792;2024-03-02T20:35:10;30.70;;;19.85;;
57085;SDS011;42964;42.910;23.792;2024-03-02T20:45:08;25.35;;;17.30;;
57085;SDS011;42964;42.910;23.792;2024-03-02T20:50:08;33.40;;;22.38;;
57085;SDS011;42964;42.910;23.792;2024-03-02T20:55:07;36.92;;;23.30;;
57085;SDS011;42964;42.910;23.792;2024-03-02T21:00:09;36.95;;;22.08;;
57085;SDS011;42964;42.910;23.792;2024-03-02T21:10:07;40.13;;;24.77;;
57085;SDS011;42964;42.910;23.792;2024-03-02T21:15:09;34.85;;;22.42;;
57085;SDS011;42964;42.910;23.792;2024-03-02T21:20:08;33.78;;;22.30;;
57085;SDS011;42964;42.910;23.792;2024-03-02T21:25:08;35.85;;;23.92;;
57085;SDS011;42964;42.910;23.792;2024-03-02T21:30:11;77.32;;;48.88;;
57085;SDS011;42964;42.910;23.792;2024-03-02T21:35:10;50.90;;;31.40;;
57085;SDS011;42964;42.910;23.792;2024-03-02T21:40:09;41.67;;;25.33;;
57085;SDS011;42964;42.910;23.792;2024-03-02T21:45:09;47.85;;;29.75;;
57085;SDS011;42964;42.910;23.792;2024-03-02T21:50:09;28.88;;;18.60;;
57085;SDS011;42964;42.910;23.792;2024-03-02T21:55:09;32.30;;;20.35;;
57085;SDS011;42964;42.910;23.792;2024-03-02T22:00:08;37.70;;;24.80;;
57085;SDS011;42964;42.910;23.792;2024-03-02T22:10:06;32.45;;;19.63;;
57085;SDS011;42964;42.910;23.792;2024-03-02T22:20:04;27.63;;;16.55;;
57085;SDS011;42964;42.910;23.792;2024-03-02T22:25:04;30.10;;;18.15;;
57085;SDS011;42964;42.910;23.792;2024-03-02T22:30:04;29.63;;;16.67;;
57085;SDS011;42964;42.910;23.792;2024-03-02T22:35:03;26.98;;;16.00;;
57085;SDS011;42964;42.910;23.792;2024-03-02T22:40:03;31.20;;;18.05;;
57085;SDS011;42964;42.910;23.792;2024-03-02T22:45:04;34.83;;;20.05;;
57085;SDS011;42964;42.910;23.792;2024-03-02T22:50:04;38.70;;;22.05;;
57085;SDS011;42964;42.910;23.792;2024-03-02T22:55:04;46.38;;;27.48;;
57085;SDS011;42964;42.910;23.792;2024-03-02T23:05:18;57.78;;;31.48;;
57085;SDS011;42964;42.910;23.792;2024-03-02T23:10:17;47.05;;;27.52;;
57085;SDS011;42964;42.910;23.792;2024-03-02T23:15:18;51.70;;;27.33;;
57085;SDS011;42964;42.910;23.792;2024-03-02T23:20:17;45.92;;;26.80;;
57085;SDS011;42964;42.910;23.792;2024-03-02T23:25:15;42.47;;;25.67;;
57085;SDS011;42964;42.910;23.792;2024-03-02T23:30:14;38.05;;;24.55;;
57085;SDS011;42964;42.910;23.792;2024-03-02T23:35:17;47.25;;;29.80;;
57085;SDS011;42964;42.910;23.792;2024-03-02T23:40:16;41.00;;;25.02;;
57085;SDS011;42964;42.910;23.792;2024-03-02T23:50:14;38.50;;;21.77;;
57085;SDS011;42964;42.910;23.792;2024-03-02T23:55:13;38.67;;;23.45;;
